createdAt,value
2023-02-03T00:00:08.504Z,100061.56
2023-02-03T00:02:35.214Z,100066.72
2023-02-03T00:05:02.019Z,100055.13
2023-02-03T00:07:28.966Z,100049.50
2023-02-03T00:09:56.991Z,100058.66
2023-02-03T00:12:23.829Z,100057.00
2023-02-03T00:14:50.522Z,100052.66
2023-02-03T00:17:17.225Z,100064.03
2023-02-03T00:19:44.019Z,100050.56
2023-02-03T00:22:10.744Z,100056.75
2023-02-03T00:24:37.693Z,100061.34
2023-02-03T00:27:04.630Z,100053.25
2023-02-03T00:29:31.411Z,100038.72
2023-02-03T00:32:00.432Z,100036.00
2023-02-03T00:34:31.370Z,100040.56
2023-02-03T00:36:58.794Z,100034.59
2023-02-03T00:39:25.540Z,100057.00
2023-02-03T00:41:52.434Z,100062.41
2023-02-03T00:44:19.340Z,100049.72
2023-02-03T00:46:45.992Z,100046.78
2023-02-03T00:49:13.780Z,100046.78
2023-02-03T00:51:40.482Z,100056.16
2023-02-03T00:54:07.376Z,100045.66
2023-02-03T00:56:34.078Z,100047.28
2023-02-03T00:59:00.812Z,100049.72
2023-02-03T01:01:27.633Z,100059.44
2023-02-03T01:03:56.016Z,100074.81
2023-02-03T01:06:23.294Z,100055.94
2023-02-03T01:08:50.965Z,100048.66
2023-02-03T01:11:21.117Z,100037.88
2023-02-03T01:13:50.955Z,100041.88
2023-02-03T01:16:20.143Z,100043.53
2023-02-03T01:18:47.587Z,100028.63
2023-02-03T01:21:18.593Z,100029.47
2023-02-03T01:23:45.974Z,100008.97
2023-02-03T01:26:15.746Z,100027.34
2023-02-03T01:28:42.765Z,100016.78
2023-02-03T01:31:12.940Z,99997.44
2023-02-03T01:33:46.052Z,100005.19
2023-02-03T01:36:13.187Z,100013.28
2023-02-03T01:38:39.885Z,100033.53
2023-02-03T01:41:10.050Z,100031.69
2023-02-03T01:43:39.583Z,100044.91
2023-02-03T01:46:33.653Z,100055.94
2023-02-03T01:49:18.284Z,100064.59
2023-02-03T01:51:45.725Z,100048.44
2023-02-03T01:54:18.743Z,100044.69
2023-02-03T01:56:50.902Z,100032.25
2023-02-03T01:59:19.775Z,100017.34
2023-02-03T02:01:47.018Z,100012.81
2023-02-03T02:04:14.405Z,100009.53
2023-02-03T02:06:41.096Z,99989.59
2023-02-03T02:09:08.794Z,99993.09
2023-02-03T02:11:35.497Z,99968.50
2023-02-03T02:14:03.398Z,99956.91
2023-02-03T02:16:45.495Z,99964.75
2023-02-03T02:19:37.067Z,99950.66
2023-02-03T02:22:30.560Z,99952.22
2023-02-03T02:25:11.694Z,99961.94
2023-02-03T02:28:08.084Z,99962.53
2023-02-03T02:31:00.381Z,99954.91
2023-02-03T02:33:47.830Z,99958.69
2023-02-03T02:36:46.844Z,99957.03
2023-02-03T02:39:27.154Z,99942.75
2023-02-03T02:42:05.147Z,99934.69
2023-02-03T02:45:04.623Z,99931.16
2023-02-03T02:47:31.665Z,99943.56
2023-02-03T02:50:22.723Z,99950.84
2023-02-03T02:52:51.281Z,99939.00
2023-02-03T02:55:27.957Z,99952.22
2023-02-03T02:57:57.762Z,99953.28
2023-02-03T03:00:24.664Z,99953.28
2023-02-03T03:02:51.755Z,99944.13
2023-02-03T03:05:18.992Z,99930.91
2023-02-03T03:07:53.850Z,99927.16
2023-02-03T03:10:24.681Z,99916.94
2023-02-03T03:12:59.160Z,99922.34
2023-02-03T03:15:30.712Z,99916.94
2023-02-03T03:18:07.379Z,99916.13
2023-02-03T03:20:37.484Z,99914.00
2023-02-03T03:23:14.856Z,99899.44
2023-02-03T03:25:45.934Z,99909.44
2023-02-03T03:28:24.269Z,99920.78
2023-02-03T03:30:51.118Z,99944.81
2023-02-03T03:33:18.777Z,99949.38
2023-02-03T03:36:17.947Z,99952.66
2023-02-03T03:38:55.465Z,99956.19
2023-02-03T03:41:39.857Z,99949.47
2023-02-03T03:44:15.059Z,99965.41
2023-02-03T03:46:48.780Z,99966.22
2023-02-03T03:49:17.753Z,99966.78
2023-02-03T03:51:51.566Z,99986.50
2023-02-03T03:54:22.126Z,99993.53
2023-02-03T03:57:05.495Z,99995.16
2023-02-03T03:59:37.329Z,100007.59
2023-02-03T04:02:04.955Z,100004.53
2023-02-03T04:04:35.547Z,100010.19
2023-02-03T04:07:02.298Z,100014.75
2023-02-03T04:09:29.116Z,100009.63
2023-02-03T04:12:01.875Z,100009.03
2023-02-03T04:14:30.404Z,100020.31
2023-02-03T04:16:57.907Z,100022.75
2023-02-03T04:19:25.477Z,100011.16
2023-02-03T04:21:52.381Z,100000.03
2023-02-03T04:24:19.102Z,99987.63
2023-02-03T04:26:45.873Z,99970.59
2023-02-03T04:29:12.713Z,99977.19
2023-02-03T04:31:39.581Z,99981.50
2023-02-03T04:34:07.218Z,99973.41
2023-02-03T04:36:34.007Z,99969.66
2023-02-03T04:39:00.767Z,99961.56
2023-02-03T04:41:27.568Z,99962.38
2023-02-03T04:43:54.252Z,99963.34
2023-02-03T04:46:21.001Z,99977.63
2023-02-03T04:48:47.738Z,99967.03
2023-02-03T04:51:14.557Z,99978.03
2023-02-03T04:53:41.315Z,99980.72
2023-02-03T04:56:08.076Z,99972.66
2023-02-03T04:58:36.414Z,99976.97
2023-02-03T05:01:08.800Z,99984.00
2023-02-03T05:03:36.227Z,99968.88
2023-02-03T05:06:03.384Z,99981.56
2023-02-03T05:08:30.769Z,99984.00
2023-02-03T05:10:58.396Z,99974.06
2023-02-03T05:13:25.970Z,99975.13
2023-02-03T05:15:52.778Z,99984.00
2023-02-03T05:18:19.527Z,99988.59
2023-02-03T05:20:46.319Z,99998.53
2023-02-03T05:23:13.136Z,99993.97
2023-02-03T05:25:41.331Z,100002.06
2023-02-03T05:28:08.251Z,99979.09
2023-02-03T05:30:35.099Z,99985.31
2023-02-03T05:33:01.895Z,99992.09
2023-02-03T05:35:28.690Z,99994.78
2023-02-03T05:37:55.917Z,99990.22
2023-02-03T05:40:41.215Z,99975.69
2023-02-03T05:43:08.113Z,99961.16
2023-02-03T05:45:35.138Z,99977.06
2023-02-03T05:48:04.782Z,99975.19
2023-02-03T05:50:36.198Z,99972.25
2023-02-03T05:53:06.174Z,99968.75
2023-02-03T05:55:33.612Z,99966.84
2023-02-03T05:58:01.048Z,99964.16
2023-02-03T06:00:29.170Z,99957.47
2023-02-03T06:02:58.996Z,99953.97
2023-02-03T06:05:26.564Z,99971.53
2023-02-03T06:07:53.331Z,99973.16
2023-02-03T06:10:20.616Z,99959.44
2023-02-03T06:12:47.903Z,99957.56
2023-02-03T06:15:15.237Z,99953.78
2023-02-03T06:17:46.646Z,99957.06
2023-02-03T06:20:15.130Z,99952.50
2023-02-03T06:22:42.429Z,99934.13
2023-02-03T06:25:12.833Z,99925.47
2023-02-03T06:27:40.149Z,99952.91
2023-02-03T06:30:07.319Z,99968.84
2023-02-03T06:32:34.105Z,99954.53
2023-02-03T06:35:00.822Z,99956.41
2023-02-03T06:37:27.478Z,99952.34
2023-02-03T06:39:54.195Z,99961.47
2023-02-03T06:42:21.094Z,99953.06
2023-02-03T06:44:47.772Z,99936.31
2023-02-03T06:47:14.742Z,99938.66
2023-02-03T06:49:41.455Z,99937.03
2023-02-03T06:52:08.286Z,99936.22
2023-02-03T06:54:35.133Z,99939.72
2023-02-03T06:57:01.968Z,99937.03
2023-02-03T06:59:28.705Z,99945.13
2023-02-03T07:01:55.450Z,99939.72
2023-02-03T07:04:22.190Z,99928.38
2023-02-03T07:06:48.871Z,99933.75
2023-02-03T07:09:16.062Z,99935.41
2023-02-03T07:11:42.892Z,99916.03
2023-02-03T07:14:09.754Z,99933.03
2023-02-03T07:16:37.408Z,99935.47
2023-02-03T07:19:05.974Z,99924.47
2023-02-03T07:21:32.680Z,99923.63
2023-02-03T07:23:59.534Z,99919.88
2023-02-03T07:26:26.596Z,99920.72
2023-02-03T07:28:54.377Z,99916.69
2023-02-03T07:31:21.732Z,99918.59
2023-02-03T07:33:49.100Z,99914.59
2023-02-03T07:36:15.824Z,99934.03
2023-02-03T07:38:42.538Z,99938.59
2023-02-03T07:41:09.282Z,99948.09
2023-02-03T07:43:36.014Z,99962.16
2023-02-03T07:46:03.001Z,99966.47
2023-02-03T07:48:29.797Z,99963.78
2023-02-03T07:50:56.491Z,99968.59
2023-02-03T07:53:23.473Z,99973.16
2023-02-03T07:55:50.453Z,99985.59
2023-02-03T07:58:17.246Z,100003.66
2023-02-03T08:00:44.017Z,99999.91
2023-02-03T08:03:10.773Z,100002.00
2023-02-03T08:05:37.491Z,99993.66
2023-02-03T08:08:04.419Z,100007.72
2023-02-03T08:10:31.425Z,100004.22
2023-02-03T08:12:58.375Z,99999.41
2023-02-03T08:15:25.184Z,100004.81
2023-02-03T08:17:52.114Z,99997.28
2023-02-03T08:20:19.017Z,100008.06
2023-02-03T08:22:45.710Z,100008.06
2023-02-03T08:25:12.669Z,100017.78
2023-02-03T08:27:42.063Z,100012.00
2023-02-03T08:30:12.684Z,100019.03
2023-02-03T08:32:39.872Z,100019.50
2023-02-03T08:35:07.086Z,100029.47
2023-02-03T08:37:34.461Z,100033.00
2023-02-03T08:40:01.258Z,100023.84
2023-02-03T08:42:28.210Z,100022.44
2023-02-03T08:44:55.144Z,100028.97
2023-02-03T08:47:22.020Z,100031.19
2023-02-03T08:49:48.944Z,100017.13
2023-02-03T08:52:18.124Z,100015.28
2023-02-03T08:54:47.193Z,100022.59
2023-02-03T08:57:14.665Z,100019.69
2023-02-03T08:59:43.066Z,100017.56
2023-02-03T09:02:14.829Z,100025.88
2023-02-03T09:04:41.572Z,100018.53
2023-02-03T09:07:23.331Z,100007.19
2023-02-03T09:09:50.198Z,99999.09
2023-02-03T09:12:17.337Z,100002.34
2023-02-03T09:14:44.164Z,100001.28
2023-02-03T09:17:11.049Z,100007.84
2023-02-03T09:19:37.774Z,100007.34
2023-02-03T09:22:04.767Z,99998.75
2023-02-03T09:24:31.894Z,100017.16
2023-02-03T09:27:00.942Z,100006.94
2023-02-03T09:29:27.910Z,100013.97
2023-02-03T09:31:54.679Z,100011.81
2023-02-03T09:34:21.899Z,100001.84
2023-02-03T09:36:49.057Z,99994.66
2023-02-03T09:39:15.841Z,99997.44
2023-02-03T09:42:01.468Z,99998.00
2023-02-03T09:44:36.887Z,99993.81
2023-02-03T09:47:12.591Z,100005.88
2023-02-03T09:49:48.100Z,99988.47
2023-02-03T09:52:19.773Z,99993.44
2023-02-03T09:55:01.163Z,99987.13
2023-02-03T09:57:35.466Z,99991.41
2023-02-03T10:00:13.614Z,100008.22
2023-02-03T10:03:01.642Z,100013.63
2023-02-03T10:05:52.882Z,99989.75
2023-02-03T10:08:44.537Z,99974.91
2023-02-03T10:11:20.602Z,99981.09
2023-02-03T10:13:59.288Z,99988.97
2023-02-03T10:16:57.066Z,99990.66
2023-02-03T10:19:30.488Z,99977.22
2023-02-03T10:22:00.275Z,100005.88
2023-02-03T10:24:43.448Z,99992.94
2023-02-03T10:27:20.361Z,99997.06
2023-02-03T10:29:56.810Z,99997.63
2023-02-03T10:32:27.051Z,100019.22
2023-02-03T10:34:54.836Z,100013.53
2023-02-03T10:37:29.278Z,100016.22
2023-02-03T10:39:59.464Z,100009.94
2023-02-03T10:42:54.662Z,99997.19
2023-02-03T10:45:22.981Z,99989.66
2023-02-03T10:47:53.824Z,99986.81
2023-02-03T10:50:23.267Z,99966.66
2023-02-03T10:52:50.064Z,99965.34
2023-02-03T10:55:23.010Z,99966.09
2023-02-03T10:57:50.570Z,99959.38
2023-02-03T11:00:29.051Z,99968.16
2023-02-03T11:03:07.960Z,99974.63
2023-02-03T11:05:37.030Z,99970.34
2023-02-03T11:08:04.213Z,99956.25
2023-02-03T11:10:39.034Z,99954.91
2023-02-03T11:13:13.467Z,99953.13
2023-02-03T11:16:02.562Z,99964.09
2023-02-03T11:18:41.027Z,99950.81
2023-02-03T11:21:37.011Z,99961.72
2023-02-03T11:24:22.746Z,99947.75
2023-02-03T11:27:14.801Z,99940.34
2023-02-03T11:29:45.357Z,99927.56
2023-02-03T11:32:23.012Z,99927.56
2023-02-03T11:35:18.649Z,99922.72
2023-02-03T11:37:47.998Z,99931.41
2023-02-03T11:40:14.928Z,99948.75
2023-02-03T11:42:43.871Z,99927.38
2023-02-03T11:45:36.167Z,99919.75
2023-02-03T11:48:39.333Z,99912.66
2023-02-03T11:51:23.657Z,99902.63
2023-02-03T11:54:16.317Z,99878.91
2023-02-03T11:57:17.255Z,99864.53
2023-02-03T12:00:13.234Z,99870.22
2023-02-03T12:03:05.827Z,99891.69
2023-02-03T12:05:51.791Z,99903.06
2023-02-03T12:08:33.755Z,99906.91
2023-02-03T12:11:07.728Z,99909.31
2023-02-03T12:13:57.663Z,99881.81
2023-02-03T12:17:08.250Z,99911.47
2023-02-03T12:20:14.743Z,99889.22
2023-02-03T12:22:52.528Z,99897.31
2023-02-03T12:25:52.058Z,99887.72
2023-02-03T12:28:34.430Z,99887.53
2023-02-03T12:31:12.485Z,99893.69
2023-02-03T12:33:48.669Z,99901.78
2023-02-03T12:36:22.326Z,99902.72
2023-02-03T12:38:55.529Z,99904.88
2023-02-03T12:41:46.428Z,99910.50
2023-02-03T12:44:26.462Z,99911.22
2023-02-03T12:47:18.051Z,99919.28
2023-02-03T12:49:49.234Z,99899.34
2023-02-03T12:52:28.049Z,99891.44
2023-02-03T12:55:21.899Z,99885.69
2023-02-03T12:57:55.689Z,99873.72
2023-02-03T13:00:46.223Z,99858.78
2023-02-03T13:03:37.987Z,99857.47
2023-02-03T13:06:13.499Z,99839.94
2023-02-03T13:08:51.061Z,99853.78
2023-02-03T13:11:24.244Z,99838.84
2023-02-03T13:13:55.615Z,99846.56
2023-02-03T13:16:30.592Z,99856.91
2023-02-03T13:19:05.784Z,99846.91
2023-02-03T13:21:32.575Z,99846.13
2023-02-03T13:23:59.493Z,99853.97
2023-02-03T13:26:51.070Z,99846.09
2023-02-03T13:29:29.977Z,99864.44
2023-02-03T13:32:32.035Z,99843.81
2023-02-03T13:35:01.849Z,99840.78
2023-02-03T13:37:44.166Z,99826.16
2023-02-03T13:40:19.675Z,99826.97
2023-02-03T13:42:53.613Z,99819.19
2023-02-03T13:45:40.556Z,99804.28
2023-02-03T13:48:14.845Z,99819.38
2023-02-03T13:50:42.315Z,99809.41
2023-02-03T13:53:20.555Z,99819.31
2023-02-03T13:56:02.574Z,99819.28
2023-02-03T13:58:32.302Z,99828.72
2023-02-03T14:01:03.696Z,99831.66
2023-02-03T14:03:30.483Z,99833.00
2023-02-03T14:05:59.383Z,99819.72
2023-02-03T14:08:26.240Z,99824.56
2023-02-03T14:11:30.813Z,99820.22
2023-02-03T14:14:06.811Z,99821.63
2023-02-03T14:16:50.961Z,99812.19
2023-02-03T14:19:22.454Z,99822.69
2023-02-03T14:21:54.017Z,99830.03
2023-02-03T14:24:21.852Z,99829.50
2023-02-03T14:26:52.826Z,99837.59
2023-02-03T14:29:30.077Z,99843.53
2023-02-03T14:32:00.192Z,99835.13
2023-02-03T14:34:44.144Z,99828.34
2023-02-03T14:37:20.603Z,99833.00
2023-02-03T14:40:26.053Z,99841.66
2023-02-03T14:43:13.650Z,99825.13
2023-02-03T14:46:08.637Z,99833.22
2023-02-03T14:48:57.301Z,99848.34
2023-02-03T14:51:33.323Z,99857.59
2023-02-03T14:54:30.798Z,99849.47
2023-02-03T14:57:16.930Z,99850.56
2023-02-03T15:00:03.246Z,99852.97
2023-02-03T15:02:31.969Z,99860.22
2023-02-03T15:05:14.313Z,99856.72
2023-02-03T15:07:46.572Z,99862.38
2023-02-03T15:10:16.478Z,99855.91
2023-02-03T15:12:46.616Z,99849.19
2023-02-03T15:15:23.829Z,99837.31
2023-02-03T15:17:53.336Z,99852.69
2023-02-03T15:20:34.243Z,99834.34
2023-02-03T15:23:03.021Z,99828.94
2023-02-03T15:25:32.943Z,99828.94
2023-02-03T15:28:20.779Z,99848.13
2023-02-03T15:30:55.354Z,99841.88
2023-02-03T15:33:23.241Z,99863.50
2023-02-03T15:35:56.006Z,99870.78
2023-02-03T15:38:31.241Z,99873.50
2023-02-03T15:40:58.998Z,99899.09
2023-02-03T15:43:41.971Z,99886.44
2023-02-03T15:46:19.457Z,99907.19
2023-02-03T15:48:46.170Z,99885.59
2023-02-03T15:51:37.199Z,99909.34
2023-02-03T15:54:16.689Z,99911.53
2023-02-03T15:56:55.055Z,99928.56
2023-02-03T15:59:42.261Z,99927.50
2023-02-03T16:02:27.378Z,99913.16
2023-02-03T16:04:54.573Z,99918.81
2023-02-03T16:07:24.791Z,99916.34
2023-02-03T16:09:56.469Z,99924.97
2023-02-03T16:12:28.977Z,99927.09
2023-02-03T16:14:57.697Z,99928.72
2023-02-03T16:17:26.385Z,99921.13
2023-02-03T16:20:13.285Z,99921.34
2023-02-03T16:22:59.097Z,99923.47
2023-02-03T16:25:29.691Z,99915.53
2023-02-03T16:28:28.273Z,99912.50
2023-02-03T16:31:19.407Z,99916.53
2023-02-03T16:34:07.516Z,99918.19
2023-02-03T16:36:58.149Z,99909.56
2023-02-03T16:39:45.425Z,99918.75
2023-02-03T16:42:38.531Z,99910.31
2023-02-03T16:45:36.411Z,99921.09
2023-02-03T16:48:22.730Z,99915.97
2023-02-03T16:50:59.689Z,99911.38
2023-02-03T16:53:30.288Z,99912.72
2023-02-03T16:56:00.409Z,99918.69
2023-02-03T16:58:27.939Z,99913.28
2023-02-03T17:00:55.921Z,99901.91
2023-02-03T17:03:25.961Z,99910.25
2023-02-03T17:05:54.013Z,99916.47
2023-02-03T17:08:22.561Z,99926.19
2023-02-03T17:10:50.018Z,99921.59
2023-02-03T17:13:21.757Z,99925.13
2023-02-03T17:15:52.514Z,99927.56
2023-02-03T17:18:19.392Z,99938.38
2023-02-03T17:20:46.389Z,99927.84
2023-02-03T17:23:16.583Z,99928.63
2023-02-03T17:25:49.037Z,99934.03
2023-02-03T17:28:16.116Z,99937.06
2023-02-03T17:30:43.340Z,99944.91
2023-02-03T17:33:13.588Z,99948.66
2023-02-03T17:35:44.952Z,99942.47
2023-02-03T17:38:14.585Z,99954.06
2023-02-03T17:54:28.316Z,99928.25
2023-02-03T17:56:55.033Z,99935.00
2023-02-03T17:59:21.805Z,99924.47
2023-02-03T18:01:49.215Z,99940.16
2023-02-03T18:04:15.978Z,99940.16
2023-02-03T18:06:42.817Z,99931.81
2023-02-03T18:09:10.229Z,99944.22
2023-02-03T18:11:38.099Z,99942.94
2023-02-03T18:14:05.535Z,99944.81
2023-02-03T18:16:35.151Z,99939.97
2023-02-03T18:19:05.076Z,99953.47
2023-02-03T18:21:32.548Z,99947.00
2023-02-03T18:24:02.097Z,99955.94
2023-02-03T18:26:34.490Z,99952.41
2023-02-03T18:29:01.846Z,99953.22
2023-02-03T18:31:29.457Z,99960.75
2023-02-03T18:34:01.482Z,99955.38
2023-02-03T18:36:28.488Z,99959.69
2023-02-03T18:38:55.266Z,99966.72
2023-02-03T18:41:24.700Z,99963.19
2023-02-03T18:43:52.374Z,99978.81
2023-02-03T18:46:39.343Z,99992.59
2023-02-03T18:49:09.203Z,99979.59
2023-02-03T18:51:36.114Z,99987.91
2023-02-03T18:54:03.879Z,99981.72
2023-02-03T18:56:35.371Z,99978.19
2023-02-03T18:59:10.006Z,99973.84
2023-02-03T19:01:38.583Z,99983.84
2023-02-03T19:04:05.869Z,99972.44
2023-02-03T19:06:33.954Z,99972.72
2023-02-03T19:09:01.397Z,99977.53
2023-02-03T19:11:28.530Z,99959.47
2023-02-03T19:13:55.336Z,99977.06
2023-02-03T19:16:22.131Z,99984.31
2023-02-03T19:18:49.013Z,99978.13
2023-02-03T19:21:17.290Z,99973.78
2023-02-03T19:23:44.375Z,99971.59
2023-02-03T19:26:12.122Z,99976.66
2023-02-03T19:28:40.690Z,99976.06
2023-02-03T19:31:10.815Z,99982.53
2023-02-03T19:33:37.892Z,99999.00
2023-02-03T19:36:05.966Z,99990.91
2023-02-03T19:38:32.852Z,99983.88
2023-02-03T19:41:01.476Z,99977.91
2023-02-03T19:43:29.545Z,99977.31
2023-02-03T19:45:56.436Z,99994.81
2023-02-03T19:48:23.220Z,99994.81
2023-02-03T19:50:50.728Z,100009.13
2023-02-03T19:53:18.700Z,99990.75
2023-02-03T19:55:46.558Z,99996.38
2023-02-03T19:58:14.236Z,100005.03
2023-02-03T20:00:42.519Z,100002.34
2023-02-03T20:03:09.840Z,100001.53
2023-02-03T20:05:37.249Z,100002.03
2023-02-03T20:08:04.783Z,100016.81
2023-02-03T20:10:32.939Z,100007.91
2023-02-03T20:13:00.417Z,100000.88
2023-02-03T20:15:27.350Z,100004.38
2023-02-03T20:17:54.762Z,100003.31
2023-02-03T20:20:23.483Z,100000.31
2023-02-03T20:22:51.341Z,100015.91
2023-02-03T20:25:19.316Z,100020.47
2023-02-03T20:27:46.932Z,100018.63
2023-02-03T20:30:15.610Z,100017.56
2023-02-03T20:32:42.732Z,100011.34
2023-02-03T20:35:10.631Z,100006.75
2023-02-03T20:37:39.231Z,99987.31
2023-02-03T20:40:17.437Z,99998.09
2023-02-03T20:42:45.440Z,99999.75
2023-02-03T20:45:14.584Z,100001.59
2023-02-03T20:47:43.531Z,100002.44
2023-02-03T20:50:19.408Z,100013.78
2023-02-03T20:52:48.522Z,100004.06
2023-02-03T20:55:19.515Z,100014.38
2023-02-03T20:57:51.839Z,100008.72
2023-02-03T21:00:25.171Z,100020.06
2023-02-03T21:03:11.277Z,100017.38
2023-02-03T21:05:45.448Z,100025.81
2023-02-03T21:08:13.479Z,100026.88
2023-02-03T21:10:40.965Z,100020.41
2023-02-03T21:13:23.412Z,100021.00
2023-02-03T21:15:52.588Z,100010.19
2023-02-03T21:18:29.812Z,100023.69
2023-02-03T21:20:56.961Z,100012.41
2023-02-03T21:23:26.445Z,100016.72
2023-02-03T21:25:54.096Z,100031.03
2023-02-03T21:28:28.820Z,100031.88
2023-02-03T21:30:57.000Z,100015.66
2023-02-03T21:33:40.710Z,100014.59
2023-02-03T21:36:19.919Z,100015.19
2023-02-03T21:38:49.992Z,100017.88
2023-02-03T21:41:19.487Z,100018.94
2023-02-03T21:43:50.995Z,100019.50
2023-02-03T21:46:26.557Z,100016.56
2023-02-03T21:48:58.281Z,100027.13
2023-02-03T21:51:35.126Z,100025.00
2023-02-03T21:54:16.180Z,100027.69
2023-02-03T21:56:45.196Z,100032.81
2023-02-03T21:59:21.738Z,100030.97
2023-02-03T22:01:49.557Z,100025.28
2023-02-03T22:04:16.262Z,100028.81
2023-02-03T22:06:49.152Z,100038.78
2023-02-03T22:09:17.781Z,100040.44
2023-02-03T22:11:45.052Z,100040.19
2023-02-03T22:14:16.632Z,100020.72
2023-02-03T22:16:44.714Z,100028.56
2023-02-03T22:19:11.498Z,100023.44
2023-02-03T22:21:38.849Z,100032.09
2023-02-03T22:24:06.647Z,100032.09
2023-02-03T22:26:33.436Z,100044.28
2023-02-03T22:29:00.207Z,100042.41
2023-02-03T22:31:27.143Z,100038.63
2023-02-03T22:33:54.030Z,100027.84
2023-02-03T22:36:23.312Z,100031.59
2023-02-03T22:38:50.054Z,100045.09
2023-02-03T22:41:16.856Z,100047.00
2023-02-03T22:43:43.547Z,100045.09
2023-02-03T22:46:10.911Z,100059.66
2023-02-03T22:48:37.897Z,100061.28
2023-02-03T22:51:04.970Z,100062.69
2023-02-03T22:53:32.632Z,100064.56
2023-02-03T22:55:59.321Z,100073.50
2023-02-03T22:58:26.027Z,100061.63
2023-02-03T23:00:52.744Z,100061.88
2023-02-03T23:03:19.517Z,100066.19
2023-02-03T23:05:46.352Z,100077.56
2023-02-03T23:08:13.095Z,100068.91
2023-02-03T23:10:39.831Z,100061.88
2023-02-03T23:13:07.416Z,100065.06
2023-02-03T23:15:34.294Z,100064.47
2023-02-03T23:18:00.998Z,100080.09
2023-02-03T23:20:27.869Z,100074.72
2023-02-03T23:22:54.660Z,100075.19
2023-02-03T23:25:21.451Z,100082.47
2023-02-03T23:27:48.300Z,100073.56
2023-02-03T23:30:15.667Z,100077.06
2023-02-03T23:32:42.485Z,100077.91
2023-02-03T23:35:27.806Z,100070.28
2023-02-03T23:37:55.165Z,100078.38
2023-02-03T23:40:22.366Z,100084.59
2023-02-03T23:42:49.849Z,100089.19
2023-02-03T23:45:16.810Z,100087.06
2023-02-03T23:47:45.000Z,100108.66
2023-02-03T23:50:15.685Z,100093.53
2023-02-03T23:52:43.512Z,100089.19
2023-02-03T23:55:15.921Z,100088.34
2023-02-03T23:57:42.865Z,100086.97
